Glasgow, MT

7:28 AM MDT on May 24, 2015 (GMT -0600)
Wokal-Glasgow International | | Change Station
CLOSE
Current Station
Airport
Location: Glasgow,
Elevation: 2293 ft
Nearby Weather Stations

Elev 2293 ft 48.21 °N, 106.62 °W | Updated 35 minutes ago

Mostly Cloudy
Mostly Cloudy
49 °F
Feels Like 49 °F
N
6
Wind Variable Wind from NNW

Today
High -- | Low -- °F
--% Chance of Precip.
Yesterday
High -- | Low -- °F
Precip. -- in
5:16 AM 8:49 PM
Waxing Crescent, 39% visible
Pressure 30.08 in
Visibility 10.0 miles
Clouds Mostly Cloudy 12000 ft
Dew Point 41 °F
Humidity 74%
Rainfall 0.00 in
Snow Depth Not available.
UV 0 out of 12
Pollen 7.90 out of 12
Air Quality Not available.
Flu Activity Sporadic
METAR KGGW 241253Z AUTO 34005KT 10SM BKN120 09/05 A3007 RMK AO2 SLP184 T00940050

More Conditions Fewer Conditions

Pressure 30.08 in
Visibility 10.0 miles
Clouds Mostly Cloudy 12000 ft
Dew Point 41 °F
Humidity 74%
Rainfall 0.00 in
Snow Depth Not available.
UV 0 out of 12
Pollen 7.90 out of 12
Air Quality Not available.
Flu Activity Sporadic
METAR KGGW 241253Z AUTO 34005KT 10SM BKN120 09/05 A3007 RMK AO2 SLP184 T00940050

More Conditions Fewer Conditions

10-Day Weather Forecast

Almanac

Astronomy

May. 24, 2015 Rise Set
Actual Time
Civil Twilight
Nautical Twilight
Astronomical Twilight
Moon
Length of Visible Light
Length of Day
Tomorrow will be .
, % of the Moon is Illuminated

Today's Extremes

State Highs State Lows

Community

WunderPhotos

Upload Photos

1,823,736 photos uploaded!

WunderBlogs® & News

Nearby

Air Quality

  Air Quality AQ Index Pollutant
Not available.

Snow Depth

Station Depth Elevation

Earthquake Activity

City Distance Mag. Time & Date
Minimum magnitude displayed is 2.5.

Coastal Water Temperatures

Place Temperature

Stations

Nearby Weather Stations

Station Location Temp. Windchill Dew Point Humidity Wind Precip. Elev Updated Type